Panama City Beach, FL (32408)

3:03 AM CST on December 28, 2014 (GMT -0600)
Grand Lagoon | Change Station
CLOSE
Current Station
Personal Weather Station
Location: Panama City Beach, FL
Elevation: 33 ft
Nearby Weather Stations

Elev 33 ft 30.16 °N, 85.76 °W | Updated 3 minutes ago

Overcast
Overcast
64.2 °F
Feels Like 64.2 °F
N
8.0
Wind Variable Wind from ESE
Gusts 11.0 mph

Today
High -- | Low -- °F
--% Chance of Precip.
Yesterday
High -- | Low -- °F
Precip. -- in
6:38 AM 4:51 PM
Waxing Crescent, 45% visible
Pressure 30.12 in
Visibility 10.0 miles
Clouds Mostly Cloudy 2000 ft
Mostly Cloudy 2600 ft
Dew Point 62 °F
Humidity 93%
Rainfall 0.00 in
Snow Depth Not available.
UV 0.0 out of 12
Pollen 2.80 out of 12
Air Quality Not available.
Flu Activity Not available.
METAR KPAM 280858Z AUTO 14005KT 10SM BKN020 BKN026 17/17 A3011 RMK AO2 CIG 020V024 SLP199 T01730165 57010 $

More Conditions Fewer Conditions

Pressure 30.12 in
Visibility 10.0 miles
Clouds Mostly Cloudy 2000 ft
Mostly Cloudy 2600 ft
Dew Point 62 °F
Humidity 93%
Rainfall 0.00 in
Snow Depth Not available.
UV 0.0 out of 12
Pollen 2.80 out of 12
Air Quality Not available.
Flu Activity Not available.
METAR KPAM 280858Z AUTO 14005KT 10SM BKN020 BKN026 17/17 A3011 RMK AO2 CIG 020V024 SLP199 T01730165 57010 $

More Conditions Fewer Conditions

10-Day Weather Forecast

Almanac

Astronomy

Dec. 28, 2014 Rise Set
Actual Time
Civil Twilight
Nautical Twilight
Astronomical Twilight
Moon
Length of Visible Light
Length of Day
Tomorrow will be .
, % of the Moon is Illuminated

Today's Extremes

State Highs State Lows

Community

WunderPhotos

Upload Photos

1,781,210 photos uploaded!

WunderBlogs® & News

Nearby

Air Quality

  Air Quality AQ Index Pollutant
Not available.

Snow Depth

Station Depth Elevation

Earthquake Activity

City Distance Mag. Time & Date
Minimum magnitude displayed is 2.5.

Coastal Water Temperatures

Place Temperature

Nearby Weather Stations